Time;durP1;ratioP1;P1;durP2;ratioP2;P2;SDS_P1;SDS_P2;PMS_P1;PMS_P2;Temp;Humidity;BMP_temperature;BMP_pressure;BME280_temperature;BME280_humidity;BME280_pressure;Samples;Min_cycle;Max_cycle;Signal;HPM_P1;HPM_P2
2021/12/06 00:00:18;;;;;;;3.83;1.85;;;;;;;;;;5099548;28;20020;-74
2021/12/06 00:02:44;;;;;;;4.20;1.80;;;;;;;;;;5099486;28;20016;-74
2021/12/06 00:05:11;;;;;;;4.65;1.70;;;;;;;;;;5097323;28;20020;-74
2021/12/06 00:07:38;;;;;;;5.57;1.77;;;;;;;;;;5099915;28;20020;-74
2021/12/06 00:10:06;;;;;;;6.80;1.83;;;;;;;;;;5095108;28;20028;-74
2021/12/06 00:12:31;;;;;;;3.35;1.70;;;;;;;;;;5079518;28;20025;-73
2021/12/06 00:14:56;;;;;;;4.55;1.73;;;;;;;;;;5082192;28;20031;-74
2021/12/06 00:17:22;;;;;;;5.90;1.85;;;;;;;;;;5079772;28;20360;-74
2021/12/06 00:19:48;;;;;;;7.15;1.90;;;;;;;;;;5079384;28;20024;-73
2021/12/06 00:22:15;;;;;;;5.72;1.70;;;;;;;;;;5079608;28;20035;-74
2021/12/06 00:24:41;;;;;;;3.88;1.60;;;;;;;;;;5078555;28;20123;-74
2021/12/06 00:27:07;;;;;;;7.22;1.90;;;;;;;;;;5082427;28;20020;-73
2021/12/06 00:29:33;;;;;;;7.13;1.88;;;;;;;;;;5095735;28;20028;-73
2021/12/06 00:31:59;;;;;;;9.70;2.10;;;;;;;;;;5097964;28;20346;-74
2021/12/06 00:34:29;;;;;;;5.70;1.77;;;;;;;;;;5085648;28;20047;-74
2021/12/06 00:37:05;;;;;;;5.00;1.70;;;;;;;;;;5100079;28;20020;-73
2021/12/06 00:39:32;;;;;;;7.72;1.98;;;;;;;;;;5103987;28;20031;-73
2021/12/06 00:41:58;;;;;;;6.93;1.95;;;;;;;;;;5103572;28;20020;-74
2021/12/06 00:44:23;;;;;;;5.72;1.88;;;;;;;;;;5100128;28;20103;-74
2021/12/06 00:46:49;;;;;;;4.60;2.03;;;;;;;;;;5098619;28;20055;-74
2021/12/06 00:49:15;;;;;;;5.75;1.90;;;;;;;;;;5096305;28;20032;-74
2021/12/06 00:51:40;;;;;;;6.07;2.10;;;;;;;;;;5093819;28;20054;-73
2021/12/06 00:54:09;;;;;;;4.75;1.83;;;;;;;;;;5102210;28;20028;-74
2021/12/06 00:56:36;;;;;;;5.00;2.00;;;;;;;;;;5091522;28;20026;-73
2021/12/06 00:59:02;;;;;;;7.18;2.05;;;;;;;;;;5086556;28;20028;-75
2021/12/06 01:01:27;;;;;;;5.88;2.05;;;;;;;;;;5083513;28;20035;-74
2021/12/06 01:03:52;;;;;;;5.07;1.80;;;;;;;;;;5085039;28;20036;-75
2021/12/06 01:06:18;;;;;;;8.15;2.25;;;;;;;;;;5103625;28;20087;-76
2021/12/06 01:08:43;;;;;;;7.47;2.03;;;;;;;;;;5103621;28;20016;-76
2021/12/06 01:11:10;;;;;;;8.32;2.30;;;;;;;;;;5103016;28;20057;-73
2021/12/06 01:13:37;;;;;;;7.80;2.20;;;;;;;;;;5103418;28;20043;-73
2021/12/06 01:16:03;;;;;;;6.93;2.10;;;;;;;;;;5102106;28;20256;-73
2021/12/06 01:18:29;;;;;;;8.85;2.10;;;;;;;;;;5103520;28;20020;-76
2021/12/06 01:23:49;;;;;;;6.68;2.40;;;;;;;;;;5103042;28;20039;-73
2021/12/06 01:39:38;;;;;;;6.70;2.42;;;;;;;;;;5102553;28;20248;-73
2021/12/06 01:42:06;;;;;;;12.00;2.65;;;;;;;;;;5102690;28;20095;-74
2021/12/06 01:44:43;;;;;;;7.82;2.30;;;;;;;;;;5104611;28;20059;-75
2021/12/06 01:47:16;;;;;;;6.38;2.30;;;;;;;;;;5105519;28;20104;-74
2021/12/06 01:50:21;;;;;;;9.27;2.20;;;;;;;;;;5102896;28;20024;-75
2021/12/06 01:52:50;;;;;;;6.75;2.40;;;;;;;;;;5099939;28;20054;-75
2021/12/06 01:55:20;;;;;;;7.05;2.30;;;;;;;;;;5081760;28;20032;-74
2021/12/06 01:57:47;;;;;;;13.57;2.53;;;;;;;;;;5082352;28;20093;-74
2021/12/06 02:00:18;;;;;;;9.30;2.60;;;;;;;;;;5094111;28;20016;-75
2021/12/06 02:02:44;;;;;;;8.18;2.20;;;;;;;;;;5102400;28;20450;-75
2021/12/06 02:05:10;;;;;;;7.55;2.42;;;;;;;;;;5102379;28;20316;-74
2021/12/06 02:07:35;;;;;;;6.80;2.58;;;;;;;;;;5102475;28;20077;-74
2021/12/06 02:10:01;;;;;;;7.18;2.50;;;;;;;;;;5102453;28;20024;-75
2021/12/06 02:12:29;;;;;;;5.38;2.47;;;;;;;;;;5102159;28;20312;-74
2021/12/06 02:15:08;;;;;;;8.52;2.47;;;;;;;;;;5102343;28;20020;-74
2021/12/06 02:17:39;;;;;;;4.95;2.22;;;;;;;;;;5101133;28;20087;-74
2021/12/06 02:20:09;;;;;;;6.80;2.53;;;;;;;;;;5102175;28;20060;-74
2021/12/06 02:22:38;;;;;;;7.97;2.58;;;;;;;;;;5101998;28;20040;-76
2021/12/06 02:25:08;;;;;;;7.25;2.67;;;;;;;;;;5102067;28;20027;-75
2021/12/06 02:27:33;;;;;;;6.30;2.30;;;;;;;;;;5083941;28;20235;-75
2021/12/06 02:30:01;;;;;;;10.43;2.70;;;;;;;;;;5102021;28;20012;-75
2021/12/06 02:32:27;;;;;;;8.02;2.47;;;;;;;;;;5101988;28;20117;-74
2021/12/06 02:34:55;;;;;;;7.85;2.30;;;;;;;;;;5102013;28;20027;-74
2021/12/06 02:37:28;;;;;;;8.23;2.92;;;;;;;;;;5102109;28;20029;-75
2021/12/06 02:39:54;;;;;;;7.93;2.65;;;;;;;;;;5101903;28;20024;-75
2021/12/06 02:42:20;;;;;;;10.20;2.85;;;;;;;;;;5101501;28;20030;-74
2021/12/06 02:44:47;;;;;;;9.55;3.00;;;;;;;;;;5101652;28;20267;-74
2021/12/06 02:47:15;;;;;;;8.18;2.75;;;;;;;;;;5101952;28;20100;-74
2021/12/06 02:49:41;;;;;;;9.57;2.55;;;;;;;;;;5101044;28;20028;-74
2021/12/06 02:52:07;;;;;;;7.25;2.50;;;;;;;;;;5101706;28;20023;-74
2021/12/06 02:54:33;;;;;;;7.70;2.60;;;;;;;;;;5101816;28;20023;-74
2021/12/06 02:59:39;;;;;;;13.50;3.03;;;;;;;;;;5101730;28;20028;-75
2021/12/06 03:02:10;;;;;;;10.73;2.90;;;;;;;;;;5101506;28;20024;-75
2021/12/06 03:04:36;;;;;;;8.68;2.75;;;;;;;;;;5101442;28;20027;-74
2021/12/06 03:07:02;;;;;;;8.60;2.83;;;;;;;;;;5100239;28;20020;-75
2021/12/06 03:09:33;;;;;;;7.05;2.95;;;;;;;;;;5101392;28;20016;-75
2021/12/06 03:12:12;;;;;;;6.70;2.88;;;;;;;;;;5101001;28;20028;-75
2021/12/06 03:14:41;;;;;;;7.55;2.92;;;;;;;;;;5101166;28;20031;-75
2021/12/06 03:17:10;;;;;;;6.95;2.80;;;;;;;;;;5100289;28;20039;-75
2021/12/06 03:19:36;;;;;;;8.77;2.83;;;;;;;;;;5101352;28;20029;-75
2021/12/06 03:22:03;;;;;;;8.82;2.80;;;;;;;;;;5101052;28;20058;-74
2021/12/06 03:24:29;;;;;;;6.13;2.85;;;;;;;;;;5091006;28;20050;-75
2021/12/06 03:26:54;;;;;;;8.63;3.00;;;;;;;;;;5080849;28;20277;-75
2021/12/06 03:29:20;;;;;;;7.57;3.55;;;;;;;;;;5090295;28;20024;-74
2021/12/06 03:31:47;;;;;;;6.60;2.95;;;;;;;;;;5101261;28;20402;-74
2021/12/06 03:34:13;;;;;;;7.65;2.72;;;;;;;;;;5101114;28;20349;-75
2021/12/06 03:36:39;;;;;;;8.88;3.10;;;;;;;;;;5100993;28;20016;-75
2021/12/06 03:39:11;;;;;;;9.68;3.45;;;;;;;;;;5101096;28;20276;-74
2021/12/06 03:41:37;;;;;;;10.05;2.95;;;;;;;;;;5101065;28;20091;-74
2021/12/06 03:44:03;;;;;;;11.75;3.38;;;;;;;;;;5101054;28;20077;-74
2021/12/06 03:46:31;;;;;;;9.20;2.90;;;;;;;;;;5100977;28;20040;-74
2021/12/06 03:48:57;;;;;;;8.30;2.85;;;;;;;;;;5101077;28;20016;-75
2021/12/06 03:51:23;;;;;;;12.00;3.08;;;;;;;;;;5101154;28;20065;-74
2021/12/06 03:53:49;;;;;;;11.77;3.40;;;;;;;;;;5100973;28;20050;-74
2021/12/06 03:56:15;;;;;;;8.98;3.08;;;;;;;;;;5100677;28;20411;-75
2021/12/06 03:58:43;;;;;;;11.80;3.13;;;;;;;;;;5100623;28;20028;-74
2021/12/06 04:01:09;;;;;;;6.60;3.03;;;;;;;;;;5101965;28;20313;-74
2021/12/06 04:03:38;;;;;;;7.63;3.50;;;;;;;;;;5104725;28;20039;-75
2021/12/06 04:06:06;;;;;;;7.90;3.50;;;;;;;;;;5103595;28;20039;-75
2021/12/06 04:08:31;;;;;;;5.68;3.45;;;;;;;;;;5104800;28;20027;-75
2021/12/06 04:10:57;;;;;;;8.65;3.30;;;;;;;;;;5104530;28;20016;-74
2021/12/06 04:13:23;;;;;;;7.25;3.30;;;;;;;;;;5104802;28;20026;-74
2021/12/06 04:15:48;;;;;;;8.20;3.53;;;;;;;;;;5104804;28;20022;-74
2021/12/06 04:18:14;;;;;;;8.82;3.65;;;;;;;;;;5103416;28;20059;-75
2021/12/06 04:20:40;;;;;;;12.60;3.58;;;;;;;;;;5104521;28;20024;-74
2021/12/06 04:23:08;;;;;;;7.50;3.40;;;;;;;;;;5103244;28;20036;-75
2021/12/06 04:25:35;;;;;;;10.70;3.80;;;;;;;;;;5104443;28;20050;-75
2021/12/06 04:28:05;;;;;;;10.13;3.97;;;;;;;;;;5104219;28;20031;-75
2021/12/06 04:30:32;;;;;;;9.48;3.58;;;;;;;;;;5104326;28;20024;-75
2021/12/06 04:32:58;;;;;;;9.82;4.05;;;;;;;;;;5104381;28;20020;-75
2021/12/06 04:35:24;;;;;;;7.97;3.53;;;;;;;;;;5104242;28;20065;-74
2021/12/06 04:37:49;;;;;;;8.23;3.67;;;;;;;;;;5104232;28;20020;-75
2021/12/06 04:40:18;;;;;;;10.32;3.55;;;;;;;;;;5104586;28;20027;-75
2021/12/06 04:42:43;;;;;;;7.88;3.40;;;;;;;;;;5104105;28;20028;-75
2021/12/06 04:45:11;;;;;;;13.18;3.92;;;;;;;;;;5102973;28;20062;-76
2021/12/06 04:47:37;;;;;;;13.00;3.85;;;;;;;;;;5103483;28;20042;-75
2021/12/06 04:50:06;;;;;;;9.65;3.67;;;;;;;;;;5103772;28;20328;-75
2021/12/06 04:52:32;;;;;;;8.48;3.83;;;;;;;;;;5103590;28;20291;-74
2021/12/06 04:55:00;;;;;;;6.43;3.55;;;;;;;;;;5104201;28;20042;-75
2021/12/06 04:57:51;;;;;;;11.05;4.07;;;;;;;;;;5102453;28;20024;-74
2021/12/06 05:00:23;;;;;;;10.13;3.72;;;;;;;;;;5101501;28;20053;-74
2021/12/06 05:02:49;;;;;;;11.00;3.65;;;;;;;;;;5103589;28;20028;-76
2021/12/06 05:05:23;;;;;;;9.82;4.20;;;;;;;;;;5103589;28;20020;-74
2021/12/06 05:07:56;;;;;;;10.75;4.30;;;;;;;;;;5103242;28;20028;-74
2021/12/06 05:10:21;;;;;;;8.88;4.32;;;;;;;;;;5102798;28;20020;-74
2021/12/06 05:12:48;;;;;;;12.13;4.50;;;;;;;;;;5089589;28;20027;-74
2021/12/06 05:15:14;;;;;;;13.60;4.18;;;;;;;;;;5102787;28;20019;-73
2021/12/06 05:17:40;;;;;;;10.55;4.28;;;;;;;;;;5103094;28;20324;-74
2021/12/06 05:20:07;;;;;;;11.82;4.43;;;;;;;;;;5102952;28;20035;-74
2021/12/06 05:22:33;;;;;;;11.43;4.38;;;;;;;;;;5102748;28;20389;-75
2021/12/06 05:24:59;;;;;;;17.58;5.05;;;;;;;;;;5103010;28;20063;-74
2021/12/06 05:27:28;;;;;;;10.40;4.43;;;;;;;;;;5101179;28;20032;-75
2021/12/06 05:29:58;;;;;;;12.23;4.55;;;;;;;;;;5100388;28;20073;-74
2021/12/06 05:32:26;;;;;;;13.07;4.40;;;;;;;;;;5103248;28;20039;-74
2021/12/06 05:35:01;;;;;;;16.48;4.45;;;;;;;;;;5098051;28;20024;-74
2021/12/06 05:37:27;;;;;;;16.47;4.70;;;;;;;;;;5090534;28;20020;-75
2021/12/06 05:39:53;;;;;;;9.05;3.92;;;;;;;;;;5099690;28;20446;-75
2021/12/06 05:42:19;;;;;;;12.10;4.22;;;;;;;;;;5101544;28;20034;-74
2021/12/06 05:44:45;;;;;;;13.00;4.25;;;;;;;;;;5099985;28;20096;-75
2021/12/06 05:47:11;;;;;;;10.50;4.53;;;;;;;;;;5100898;28;20020;-75
2021/12/06 05:49:36;;;;;;;9.50;3.90;;;;;;;;;;5101413;28;20320;-75
2021/12/06 05:52:02;;;;;;;10.27;4.10;;;;;;;;;;5102171;28;20055;-75
2021/12/06 05:54:31;;;;;;;10.70;4.40;;;;;;;;;;5093438;28;20021;-75
2021/12/06 05:56:57;;;;;;;9.60;4.00;;;;;;;;;;5101580;28;20083;-77
2021/12/06 05:59:25;;;;;;;13.80;4.78;;;;;;;;;;5102612;28;20031;-76
2021/12/06 06:01:53;;;;;;;8.80;3.83;;;;;;;;;;5102440;28;20517;-75
2021/12/06 06:04:19;;;;;;;13.05;4.40;;;;;;;;;;5102085;28;20032;-75
2021/12/06 06:06:44;;;;;;;9.65;4.00;;;;;;;;;;5102164;28;20031;-75
2021/12/06 06:09:10;;;;;;;15.65;4.50;;;;;;;;;;5102266;28;20040;-74
2021/12/06 06:11:35;;;;;;;12.55;5.15;;;;;;;;;;5101877;28;20201;-74
2021/12/06 06:14:03;;;;;;;13.82;4.68;;;;;;;;;;5101893;28;20036;-74
2021/12/06 06:16:32;;;;;;;13.75;4.63;;;;;;;;;;5102090;28;20024;-74
2021/12/06 06:18:58;;;;;;;14.23;5.03;;;;;;;;;;5102009;28;20024;-74
2021/12/06 06:21:24;;;;;;;14.95;5.22;;;;;;;;;;5100729;28;20047;-74
2021/12/06 06:23:49;;;;;;;17.85;5.47;;;;;;;;;;5100762;28;20108;-74
2021/12/06 06:26:15;;;;;;;15.32;5.30;;;;;;;;;;5101226;28;20069;-73
2021/12/06 06:28:40;;;;;;;15.73;5.22;;;;;;;;;;5088322;28;20024;-73
2021/12/06 06:31:05;;;;;;;13.25;5.18;;;;;;;;;;5092620;28;20020;-74
2021/12/06 06:33:31;;;;;;;15.15;5.15;;;;;;;;;;5101683;28;20122;-74
2021/12/06 06:35:56;;;;;;;13.68;4.70;;;;;;;;;;5100983;28;20185;-75
2021/12/06 06:38:23;;;;;;;12.70;5.20;;;;;;;;;;5093178;28;20052;-74
2021/12/06 06:40:48;;;;;;;8.88;4.30;;;;;;;;;;5081009;28;20216;-74
2021/12/06 06:43:14;;;;;;;13.40;4.75;;;;;;;;;;5077303;28;20037;-74
2021/12/06 06:45:39;;;;;;;10.63;4.82;;;;;;;;;;5090845;28;20091;-73
2021/12/06 06:48:05;;;;;;;12.60;4.82;;;;;;;;;;5101190;28;20060;-74
2021/12/06 06:50:30;;;;;;;9.18;4.30;;;;;;;;;;5101195;28;20032;-74
2021/12/06 06:52:56;;;;;;;8.18;4.20;;;;;;;;;;5091476;28;20084;-73
2021/12/06 06:55:23;;;;;;;13.27;5.00;;;;;;;;;;5087698;28;20028;-73
2021/12/06 06:57:50;;;;;;;16.38;5.50;;;;;;;;;;5099383;28;20047;-72
2021/12/06 07:00:19;;;;;;;9.98;4.65;;;;;;;;;;5100383;28;20059;-73
2021/12/06 07:02:45;;;;;;;10.50;4.45;;;;;;;;;;5100393;28;20028;-73
2021/12/06 07:05:11;;;;;;;10.05;4.80;;;;;;;;;;5100455;28;20106;-73
2021/12/06 07:07:37;;;;;;;11.13;4.32;;;;;;;;;;5088579;28;20031;-73
2021/12/06 07:10:05;;;;;;;14.73;5.20;;;;;;;;;;5080229;28;20091;-73
2021/12/06 07:12:30;;;;;;;13.43;5.03;;;;;;;;;;5090979;28;20031;-72
2021/12/06 07:14:56;;;;;;;11.52;4.40;;;;;;;;;;5099418;28;20051;-73
2021/12/06 07:17:21;;;;;;;14.27;4.78;;;;;;;;;;5097052;28;20050;-74
2021/12/06 07:19:47;;;;;;;11.65;4.68;;;;;;;;;;5099671;28;20020;-73
2021/12/06 07:22:12;;;;;;;13.32;5.10;;;;;;;;;;5100376;28;20032;-73
2021/12/06 07:24:38;;;;;;;14.57;4.75;;;;;;;;;;5100680;28;20035;-75
2021/12/06 07:27:04;;;;;;;12.45;5.00;;;;;;;;;;5098372;28;20020;-73
2021/12/06 07:29:33;;;;;;;12.85;5.45;;;;;;;;;;5100722;28;20024;-75
2021/12/06 07:32:00;;;;;;;13.65;4.57;;;;;;;;;;5100261;28;20475;-75
2021/12/06 07:34:26;;;;;;;13.35;5.07;;;;;;;;;;5106542;28;20062;-75
2021/12/06 07:36:51;;;;;;;11.85;4.53;;;;;;;;;;5110260;28;20020;-73
2021/12/06 07:39:17;;;;;;;10.40;4.75;;;;;;;;;;5119972;28;20031;-73
2021/12/06 07:41:43;;;;;;;13.77;4.93;;;;;;;;;;5116219;28;20079;-74
2021/12/06 07:44:09;;;;;;;14.90;5.28;;;;;;;;;;5107441;28;20023;-82
2021/12/06 07:46:35;;;;;;;17.15;5.18;;;;;;;;;;5100340;28;20050;-74
2021/12/06 07:49:01;;;;;;;14.55;5.07;;;;;;;;;;5103312;28;20036;-74
2021/12/06 07:51:28;;;;;;;13.07;4.72;;;;;;;;;;5111886;28;20212;-74
2021/12/06 07:53:55;;;;;;;13.07;4.95;;;;;;;;;;5103269;28;20028;-75
2021/12/06 07:56:20;;;;;;;16.73;6.00;;;;;;;;;;5101840;28;20032;-74
2021/12/06 07:58:47;;;;;;;15.57;5.90;;;;;;;;;;5100500;28;20024;-73
2021/12/06 08:01:12;;;;;;;15.70;5.07;;;;;;;;;;5102897;28;20096;-74
2021/12/06 08:03:40;;;;;;;12.68;5.10;;;;;;;;;;5088277;28;20300;-74
2021/12/06 08:06:08;;;;;;;13.60;5.30;;;;;;;;;;5100536;28;20031;-74
2021/12/06 08:08:37;;;;;;;13.60;5.05;;;;;;;;;;5114508;28;20099;-74
2021/12/06 08:11:11;;;;;;;13.27;5.28;;;;;;;;;;5090200;28;20031;-73
2021/12/06 08:13:39;;;;;;;20.35;6.35;;;;;;;;;;5087358;28;20036;-74
2021/12/06 08:16:11;;;;;;;17.00;6.10;;;;;;;;;;5096111;28;20016;-74
2021/12/06 08:18:36;;;;;;;17.42;5.75;;;;;;;;;;5094281;28;20016;-73
2021/12/06 08:21:04;;;;;;;13.88;5.60;;;;;;;;;;5080760;28;20245;-73
2021/12/06 08:23:29;;;;;;;16.45;6.40;;;;;;;;;;5079937;28;20052;-73
2021/12/06 08:25:55;;;;;;;15.38;5.70;;;;;;;;;;5082370;28;20028;-73
2021/12/06 08:28:23;;;;;;;11.38;5.20;;;;;;;;;;5085012;28;20457;-73
2021/12/06 08:30:50;;;;;;;12.43;5.50;;;;;;;;;;5080311;28;20044;-74
2021/12/06 08:33:16;;;;;;;15.25;5.38;;;;;;;;;;5079059;28;20221;-73
2021/12/06 08:35:46;;;;;;;12.35;5.43;;;;;;;;;;5081120;28;20039;-73
2021/12/06 08:38:13;;;;;;;14.30;5.18;;;;;;;;;;5081378;28;20058;-74
2021/12/06 08:40:41;;;;;;;17.58;5.32;;;;;;;;;;5080854;28;20508;-74
2021/12/06 08:43:07;;;;;;;16.08;5.75;;;;;;;;;;5081996;28;20097;-73
2021/12/06 08:45:34;;;;;;;15.98;5.65;;;;;;;;;;5079356;28;20025;-74
2021/12/06 08:47:59;;;;;;;17.10;6.15;;;;;;;;;;5081595;28;20024;-74
2021/12/06 08:50:29;;;;;;;15.43;6.25;;;;;;;;;;5091251;28;20016;-75
2021/12/06 08:52:55;;;;;;;13.95;5.05;;;;;;;;;;5103655;28;20024;-74
2021/12/06 08:55:23;;;;;;;14.68;5.32;;;;;;;;;;5086025;28;20051;-73
2021/12/06 08:57:50;;;;;;;13.00;5.45;;;;;;;;;;5084638;28;20193;-73
2021/12/06 09:00:20;;;;;;;14.07;5.78;;;;;;;;;;5099000;28;20031;-74
2021/12/06 09:02:45;;;;;;;14.05;6.00;;;;;;;;;;5097289;28;20347;-73
2021/12/06 09:05:13;;;;;;;15.80;5.80;;;;;;;;;;5102258;28;20183;-73
2021/12/06 09:07:39;;;;;;;14.75;5.57;;;;;;;;;;5096638;28;20043;-74
2021/12/06 09:10:07;;;;;;;13.77;5.78;;;;;;;;;;5103686;28;20291;-73
2021/12/06 09:12:33;;;;;;;17.63;6.47;;;;;;;;;;5102573;28;20378;-72
2021/12/06 09:15:02;;;;;;;16.15;6.68;;;;;;;;;;5094413;28;20522;-73
2021/12/06 09:17:28;;;;;;;20.42;6.63;;;;;;;;;;5081008;28;20020;-74
2021/12/06 09:19:54;;;;;;;16.58;6.18;;;;;;;;;;5087732;28;20390;-73
2021/12/06 09:22:21;;;;;;;18.38;6.20;;;;;;;;;;5085536;28;20036;-74
2021/12/06 09:24:47;;;;;;;15.70;6.43;;;;;;;;;;5083450;28;20080;-74
2021/12/06 09:27:13;;;;;;;18.77;6.43;;;;;;;;;;5080126;28;20039;-73
2021/12/06 09:29:38;;;;;;;19.83;6.82;;;;;;;;;;5089375;28;20058;-76
2021/12/06 09:32:08;;;;;;;20.50;6.80;;;;;;;;;;5101991;28;20047;-76
2021/12/06 09:34:37;;;;;;;14.05;6.55;;;;;;;;;;5092713;28;20048;-73
2021/12/06 09:37:02;;;;;;;15.98;6.78;;;;;;;;;;5081615;28;20018;-73
2021/12/06 09:39:28;;;;;;;16.83;7.70;;;;;;;;;;5084638;28;20074;-72
2021/12/06 09:41:54;;;;;;;19.42;7.28;;;;;;;;;;5082238;28;20028;-73
2021/12/06 09:44:19;;;;;;;14.77;7.03;;;;;;;;;;5096314;28;20077;-73
2021/12/06 09:46:46;;;;;;;16.88;6.70;;;;;;;;;;5103032;28;20320;-73
2021/12/06 09:49:15;;;;;;;20.77;6.80;;;;;;;;;;5102811;28;20031;-73
2021/12/06 09:51:45;;;;;;;17.52;6.95;;;;;;;;;;5101044;28;20039;-75
2021/12/06 09:54:11;;;;;;;13.27;6.80;;;;;;;;;;5099418;28;20027;-75
2021/12/06 09:56:42;;;;;;;19.13;6.88;;;;;;;;;;5097970;28;20051;-75
2021/12/06 09:59:11;;;;;;;20.83;7.45;;;;;;;;;;5090657;28;20051;-76
2021/12/06 10:01:44;;;;;;;20.45;7.30;;;;;;;;;;5093153;28;20012;-75
2021/12/06 10:04:14;;;;;;;16.48;7.10;;;;;;;;;;5101634;28;20249;-74
2021/12/06 10:06:40;;;;;;;23.45;7.20;;;;;;;;;;5091480;28;20382;-74
2021/12/06 10:09:07;;;;;;;18.67;6.65;;;;;;;;;;5093057;28;20051;-75
2021/12/06 10:11:33;;;;;;;18.95;7.03;;;;;;;;;;5091150;28;20070;-75
2021/12/06 10:13:59;;;;;;;16.65;6.38;;;;;;;;;;5082334;28;22026;-75
2021/12/06 10:16:25;;;;;;;16.30;5.90;;;;;;;;;;5082564;28;20048;-75
2021/12/06 10:18:52;;;;;;;12.02;5.97;;;;;;;;;;5083285;28;20030;-75
2021/12/06 10:21:19;;;;;;;16.77;6.38;;;;;;;;;;5081440;28;20330;-75
2021/12/06 10:23:45;;;;;;;18.50;6.65;;;;;;;;;;5078563;28;20044;-75
2021/12/06 10:26:13;;;;;;;12.93;6.50;;;;;;;;;;5089338;28;20030;-75
2021/12/06 10:28:43;;;;;;;12.55;6.07;;;;;;;;;;5083216;28;20021;-75
2021/12/06 10:31:10;;;;;;;13.70;5.93;;;;;;;;;;5084800;28;20029;-75
2021/12/06 10:33:40;;;;;;;19.42;6.22;;;;;;;;;;5089788;28;20079;-75
2021/12/06 10:36:11;;;;;;;13.85;6.25;;;;;;;;;;5084033;28;20052;-75
2021/12/06 10:38:40;;;;;;;10.35;5.15;;;;;;;;;;5079525;28;20024;-78
2021/12/06 10:41:18;;;;;;;13.73;6.20;;;;;;;;;;5079487;28;20021;-75
2021/12/06 10:43:57;;;;;;;13.70;5.60;;;;;;;;;;5080139;28;20058;-78
2021/12/06 10:46:23;;;;;;;9.90;5.18;;;;;;;;;;5084648;28;20074;-75
2021/12/06 10:48:53;;;;;;;17.23;5.57;;;;;;;;;;5084570;28;20217;-75
2021/12/06 10:51:19;;;;;;;13.90;5.15;;;;;;;;;;5080765;28;20032;-77
2021/12/06 10:53:52;;;;;;;11.88;5.35;;;;;;;;;;5095118;28;20057;-75
2021/12/06 10:56:24;;;;;;;13.27;5.75;;;;;;;;;;5081132;28;20312;-77
2021/12/06 10:58:53;;;;;;;10.60;4.75;;;;;;;;;;5081633;28;20021;-75
2021/12/06 11:01:21;;;;;;;10.18;4.60;;;;;;;;;;5090013;28;20070;-78
2021/12/06 11:03:53;;;;;;;11.20;4.68;;;;;;;;;;5093055;28;20212;-76
2021/12/06 11:06:26;;;;;;;9.57;4.10;;;;;;;;;;5088848;28;20040;-78
2021/12/06 11:08:55;;;;;;;13.70;4.80;;;;;;;;;;5097691;28;20224;-76
2021/12/06 11:11:27;;;;;;;13.80;4.53;;;;;;;;;;5116425;28;20231;-77
2021/12/06 11:13:58;;;;;;;14.65;4.93;;;;;;;;;;5118755;28;20039;-75
2021/12/06 11:16:29;;;;;;;8.50;4.10;;;;;;;;;;5120812;28;20031;-75
2021/12/06 11:18:59;;;;;;;10.00;3.95;;;;;;;;;;5121677;28;20349;-75
2021/12/06 11:21:33;;;;;;;9.20;4.50;;;;;;;;;;5120824;27;20309;-75
2021/12/06 11:24:06;;;;;;;12.10;5.10;;;;;;;;;;5119361;28;20066;-75
2021/12/06 11:26:35;;;;;;;8.18;4.80;;;;;;;;;;5105558;28;20031;-75
2021/12/06 11:29:34;;;;;;;12.43;4.97;;;;;;;;;;5104103;28;20032;-76
2021/12/06 11:32:02;;;;;;;11.63;3.80;;;;;;;;;;5081330;28;20204;-77
2021/12/06 11:34:44;;;;;;;10.82;4.43;;;;;;;;;;5079233;28;20028;-75
2021/12/06 11:37:28;;;;;;;9.60;4.10;;;;;;;;;;5097588;28;20020;-75
2021/12/06 11:40:02;;;;;;;7.20;3.80;;;;;;;;;;5132982;28;20087;-76
2021/12/06 11:42:28;;;;;;;19.27;5.30;;;;;;;;;;5100729;28;20284;-75
2021/12/06 11:44:53;;;;;;;9.07;4.15;;;;;;;;;;5100528;28;20276;-74
2021/12/06 11:47:20;;;;;;;13.68;4.22;;;;;;;;;;5101080;28;20020;-75
2021/12/06 11:49:54;;;;;;;11.15;4.20;;;;;;;;;;5100728;28;20062;-75
2021/12/06 11:52:28;;;;;;;8.55;4.20;;;;;;;;;;5101059;28;20020;-75
2021/12/06 11:55:04;;;;;;;12.05;3.97;;;;;;;;;;5099176;28;20081;-74
2021/12/06 11:57:34;;;;;;;7.18;3.60;;;;;;;;;;5101622;28;20030;-74
2021/12/06 12:00:16;;;;;;;9.55;3.17;;;;;;;;;;5118042;28;20047;-74
2021/12/06 12:02:49;;;;;;;11.07;3.13;;;;;;;;;;5121259;28;20317;-76
2021/12/06 12:05:20;;;;;;;10.18;3.35;;;;;;;;;;5121135;27;20030;-75
2021/12/06 12:08:02;;;;;;;8.85;3.30;;;;;;;;;;5112385;28;20027;-75
2021/12/06 12:10:45;;;;;;;8.38;3.20;;;;;;;;;;5119369;28;20209;-75
2021/12/06 12:13:20;;;;;;;10.02;3.15;;;;;;;;;;5118909;28;20023;-75
2021/12/06 12:15:46;;;;;;;8.38;3.40;;;;;;;;;;5120786;28;20050;-74
2021/12/06 12:18:11;;;;;;;11.10;3.58;;;;;;;;;;5120238;28;20319;-76
2021/12/06 12:20:37;;;;;;;11.05;3.47;;;;;;;;;;5120812;28;20088;-79
2021/12/06 12:23:08;;;;;;;8.27;2.72;;;;;;;;;;5122033;28;20107;-77
2021/12/06 12:25:37;;;;;;;9.38;3.20;;;;;;;;;;5124626;28;20026;-76
2021/12/06 12:28:26;;;;;;;8.55;3.10;;;;;;;;;;5104704;28;20043;-74
2021/12/06 12:30:56;;;;;;;11.90;3.08;;;;;;;;;;5104295;28;20031;-75
2021/12/06 12:33:22;;;;;;;8.43;3.40;;;;;;;;;;5102154;28;20036;-75
2021/12/06 12:35:52;;;;;;;8.10;3.40;;;;;;;;;;5104482;28;20024;-75
2021/12/06 12:38:27;;;;;;;9.88;3.63;;;;;;;;;;5104289;28;20027;-74
2021/12/06 12:40:56;;;;;;;9.27;3.40;;;;;;;;;;5104046;28;20338;-74
2021/12/06 12:43:33;;;;;;;9.52;3.17;;;;;;;;;;5103155;28;20065;-77
2021/12/06 12:46:04;;;;;;;8.80;2.97;;;;;;;;;;5103932;28;20073;-75
2021/12/06 12:48:45;;;;;;;13.68;3.10;;;;;;;;;;5104270;28;20047;-75
2021/12/06 12:51:16;;;;;;;9.55;2.90;;;;;;;;;;5104089;28;20028;-73
2021/12/06 12:54:10;;;;;;;7.63;2.97;;;;;;;;;;5103907;28;20032;-73
2021/12/06 12:56:50;;;;;;;13.00;3.40;;;;;;;;;;5103787;28;20016;-73
2021/12/06 12:59:57;;;;;;;11.32;2.88;;;;;;;;;;5103897;28;20020;-73
2021/12/06 13:02:35;;;;;;;8.77;2.75;;;;;;;;;;5104033;28;20300;-77
2021/12/06 13:05:07;;;;;;;12.57;2.90;;;;;;;;;;5123436;28;20142;-79
2021/12/06 13:07:34;;;;;;;8.20;3.00;;;;;;;;;;5124326;28;20373;-79
2021/12/06 13:10:29;;;;;;;7.80;2.40;;;;;;;;;;5122953;28;20043;-77
2021/12/06 13:13:11;;;;;;;8.23;2.30;;;;;;;;;;5123898;28;20019;-77
2021/12/06 13:19:04;;;;;;;9.18;1.90;;;;;;;;;;5118484;28;20028;-79
2021/12/06 13:21:42;;;;;;;13.27;3.08;;;;;;;;;;5123734;28;20302;-77
2021/12/06 13:24:13;;;;;;;8.85;2.67;;;;;;;;;;5123780;28;20122;-77
2021/12/06 13:26:56;;;;;;;8.55;2.60;;;;;;;;;;5123681;28;20020;-77
2021/12/06 13:29:26;;;;;;;7.38;2.50;;;;;;;;;;5124276;28;20181;-77
2021/12/06 13:31:51;;;;;;;10.55;2.17;;;;;;;;;;5123874;28;20042;-76
2021/12/06 13:34:27;;;;;;;15.40;2.53;;;;;;;;;;5123229;28;20375;-77
2021/12/06 13:37:00;;;;;;;5.68;2.17;;;;;;;;;;5123738;28;20122;-78
2021/12/06 13:39:44;;;;;;;4.68;2.00;;;;;;;;;;5123075;28;20076;-78
2021/12/06 13:42:13;;;;;;;8.55;2.15;;;;;;;;;;5113567;28;20024;-77
2021/12/06 13:44:41;;;;;;;4.68;2.10;;;;;;;;;;5103009;28;20077;-77
2021/12/06 13:47:15;;;;;;;8.60;2.67;;;;;;;;;;5103363;28;20191;-76
2021/12/06 13:49:58;;;;;;;8.35;2.00;;;;;;;;;;5108440;28;20028;-76
2021/12/06 13:52:43;;;;;;;6.55;2.63;;;;;;;;;;5109392;28;20019;-76
2021/12/06 13:55:31;;;;;;;9.73;2.42;;;;;;;;;;5111172;28;20190;-77
2021/12/06 13:58:01;;;;;;;8.38;2.13;;;;;;;;;;5101444;28;20099;-77
2021/12/06 14:00:30;;;;;;;5.88;2.33;;;;;;;;;;5102877;28;20016;-77
2021/12/06 14:02:59;;;;;;;7.13;2.60;;;;;;;;;;5103292;28;20023;-76
2021/12/06 14:05:25;;;;;;;10.13;2.88;;;;;;;;;;5102588;28;20035;-76
2021/12/06 14:07:51;;;;;;;9.73;2.95;;;;;;;;;;5102792;28;20060;-79
2021/12/06 14:10:17;;;;;;;2.90;1.50;;;;;;;;;;5102362;28;20388;-77
2021/12/06 14:12:44;;;;;;;6.60;2.20;;;;;;;;;;5101447;28;20027;-77
2021/12/06 14:15:17;;;;;;;5.63;1.80;;;;;;;;;;5101186;28;20034;-78
2021/12/06 14:17:44;;;;;;;8.35;2.10;;;;;;;;;;5101349;28;20216;-77
2021/12/06 14:20:11;;;;;;;14.50;3.25;;;;;;;;;;5102428;28;20024;-77
2021/12/06 14:22:37;;;;;;;7.95;2.63;;;;;;;;;;5102194;28;20044;-77
2021/12/06 14:25:03;;;;;;;8.65;2.30;;;;;;;;;;5102643;28;20042;-77
2021/12/06 14:27:36;;;;;;;7.25;2.17;;;;;;;;;;5100896;28;20139;-77
2021/12/06 14:30:05;;;;;;;10.68;2.85;;;;;;;;;;5102213;28;20020;-77
2021/12/06 14:32:31;;;;;;;10.40;2.92;;;;;;;;;;5101737;28;20114;-77
2021/12/06 14:34:57;;;;;;;9.68;2.60;;;;;;;;;;5102247;28;20061;-77
2021/12/06 14:37:23;;;;;;;8.68;2.15;;;;;;;;;;5102297;28;20031;-77
2021/12/06 14:39:56;;;;;;;6.45;2.22;;;;;;;;;;5102009;28;20024;-79
2021/12/06 14:42:22;;;;;;;8.10;2.28;;;;;;;;;;5101326;28;20077;-78
2021/12/06 14:44:54;;;;;;;7.03;2.33;;;;;;;;;;5101306;28;20127;-78
2021/12/06 14:47:42;;;;;;;11.73;2.53;;;;;;;;;;5114736;28;20066;-77
2021/12/06 14:50:18;;;;;;;7.90;2.50;;;;;;;;;;5122043;28;20011;-78
2021/12/06 14:52:46;;;;;;;8.13;2.53;;;;;;;;;;5122403;28;20103;-79
2021/12/06 14:57:50;;;;;;;7.82;2.30;;;;;;;;;;5121111;28;20023;-78
2021/12/06 15:00:22;;;;;;;8.52;2.88;;;;;;;;;;5121984;28;20308;-80
2021/12/06 15:02:52;;;;;;;10.10;2.20;;;;;;;;;;5122123;27;20041;-80
2021/12/06 15:05:30;;;;;;;6.63;2.20;;;;;;;;;;5119605;28;20245;-78
2021/12/06 15:07:59;;;;;;;9.35;2.63;;;;;;;;;;5122081;28;20019;-77
2021/12/06 15:10:25;;;;;;;14.30;3.20;;;;;;;;;;5119277;28;20012;-78